sensor_id;sensor_type;location;lat;lon;timestamp;P1;durP1;ratioP1;P2;durP2;ratioP2
56242;SDS011;42155;53.096;23.226;2023-10-31T00:00:45;25.15;;;13.05;;
56242;SDS011;42155;53.096;23.226;2023-10-31T00:02:45;26.90;;;14.70;;
56242;SDS011;42155;53.096;23.226;2023-10-31T00:04:46;27.63;;;13.52;;
56242;SDS011;42155;53.096;23.226;2023-10-31T00:06:46;23.33;;;13.85;;
56242;SDS011;42155;53.096;23.226;2023-10-31T00:08:46;24.05;;;13.93;;
56242;SDS011;42155;53.096;23.226;2023-10-31T00:10:47;26.88;;;14.38;;
56242;SDS011;42155;53.096;23.226;2023-10-31T00:12:47;24.65;;;13.65;;
56242;SDS011;42155;53.096;23.226;2023-10-31T00:14:47;25.63;;;13.63;;
56242;SDS011;42155;53.096;23.226;2023-10-31T00:16:47;25.02;;;13.05;;
56242;SDS011;42155;53.096;23.226;2023-10-31T00:18:48;26.05;;;13.75;;
56242;SDS011;42155;53.096;23.226;2023-10-31T00:20:48;28.05;;;13.65;;
56242;SDS011;42155;53.096;23.226;2023-10-31T00:22:48;25.02;;;13.35;;
56242;SDS011;42155;53.096;23.226;2023-10-31T00:24:49;23.83;;;13.40;;
56242;SDS011;42155;53.096;23.226;2023-10-31T00:26:49;23.75;;;13.45;;
56242;SDS011;42155;53.096;23.226;2023-10-31T00:28:51;27.52;;;13.27;;
56242;SDS011;42155;53.096;23.226;2023-10-31T00:30:51;25.35;;;13.07;;
56242;SDS011;42155;53.096;23.226;2023-10-31T00:32:51;24.02;;;13.10;;
56242;SDS011;42155;53.096;23.226;2023-10-31T00:34:52;22.17;;;13.07;;
56242;SDS011;42155;53.096;23.226;2023-10-31T00:36:52;27.80;;;14.25;;
56242;SDS011;42155;53.096;23.226;2023-10-31T00:38:52;23.15;;;12.90;;
56242;SDS011;42155;53.096;23.226;2023-10-31T00:40:53;23.05;;;12.98;;
56242;SDS011;42155;53.096;23.226;2023-10-31T00:42:53;20.80;;;12.73;;
56242;SDS011;42155;53.096;23.226;2023-10-31T00:44:53;24.17;;;12.25;;
56242;SDS011;42155;53.096;23.226;2023-10-31T00:46:54;19.88;;;12.35;;
56242;SDS011;42155;53.096;23.226;2023-10-31T00:48:54;23.55;;;12.82;;
56242;SDS011;42155;53.096;23.226;2023-10-31T00:50:54;23.70;;;13.82;;
56242;SDS011;42155;53.096;23.226;2023-10-31T00:52:55;28.08;;;13.52;;
56242;SDS011;42155;53.096;23.226;2023-10-31T00:54:55;20.80;;;11.50;;
56242;SDS011;42155;53.096;23.226;2023-10-31T00:56:55;22.58;;;11.95;;
56242;SDS011;42155;53.096;23.226;2023-10-31T00:58:56;26.40;;;13.15;;
56242;SDS011;42155;53.096;23.226;2023-10-31T01:00:56;19.65;;;11.77;;
56242;SDS011;42155;53.096;23.226;2023-10-31T01:02:57;25.35;;;12.40;;
56242;SDS011;42155;53.096;23.226;2023-10-31T01:04:57;20.58;;;12.07;;
56242;SDS011;42155;53.096;23.226;2023-10-31T01:06:58;21.75;;;12.38;;
56242;SDS011;42155;53.096;23.226;2023-10-31T01:08:58;19.95;;;11.77;;
56242;SDS011;42155;53.096;23.226;2023-10-31T01:10:58;25.40;;;12.23;;
56242;SDS011;42155;53.096;23.226;2023-10-31T01:12:59;24.42;;;12.48;;
56242;SDS011;42155;53.096;23.226;2023-10-31T01:14:59;26.63;;;11.98;;
56242;SDS011;42155;53.096;23.226;2023-10-31T01:17:00;27.70;;;12.63;;
56242;SDS011;42155;53.096;23.226;2023-10-31T01:19:00;26.10;;;12.13;;
56242;SDS011;42155;53.096;23.226;2023-10-31T01:21:00;24.95;;;12.52;;
56242;SDS011;42155;53.096;23.226;2023-10-31T01:23:00;23.10;;;13.07;;
56242;SDS011;42155;53.096;23.226;2023-10-31T01:25:01;20.77;;;12.93;;
56242;SDS011;42155;53.096;23.226;2023-10-31T01:27:01;22.42;;;12.05;;
56242;SDS011;42155;53.096;23.226;2023-10-31T01:29:02;23.75;;;11.93;;
56242;SDS011;42155;53.096;23.226;2023-10-31T01:31:02;25.17;;;12.70;;
56242;SDS011;42155;53.096;23.226;2023-10-31T01:33:03;21.45;;;11.88;;
56242;SDS011;42155;53.096;23.226;2023-10-31T01:35:04;20.88;;;12.63;;
56242;SDS011;42155;53.096;23.226;2023-10-31T01:37:04;22.38;;;11.80;;
56242;SDS011;42155;53.096;23.226;2023-10-31T01:39:05;22.85;;;12.20;;
56242;SDS011;42155;53.096;23.226;2023-10-31T01:41:05;24.23;;;12.05;;
56242;SDS011;42155;53.096;23.226;2023-10-31T01:43:05;23.80;;;11.65;;
56242;SDS011;42155;53.096;23.226;2023-10-31T01:45:06;26.48;;;12.20;;
56242;SDS011;42155;53.096;23.226;2023-10-31T01:47:07;23.98;;;11.60;;
56242;SDS011;42155;53.096;23.226;2023-10-31T01:49:07;23.95;;;11.35;;
56242;SDS011;42155;53.096;23.226;2023-10-31T01:51:08;24.13;;;12.10;;
56242;SDS011;42155;53.096;23.226;2023-10-31T01:53:10;21.73;;;11.07;;
56242;SDS011;42155;53.096;23.226;2023-10-31T01:55:10;24.02;;;11.30;;
56242;SDS011;42155;53.096;23.226;2023-10-31T01:57:12;21.20;;;11.57;;
56242;SDS011;42155;53.096;23.226;2023-10-31T01:59:13;23.52;;;12.27;;
56242;SDS011;42155;53.096;23.226;2023-10-31T02:01:14;19.55;;;11.70;;
56242;SDS011;42155;53.096;23.226;2023-10-31T02:03:14;22.52;;;11.88;;
56242;SDS011;42155;53.096;23.226;2023-10-31T02:05:15;21.13;;;10.75;;
56242;SDS011;42155;53.096;23.226;2023-10-31T02:07:16;24.75;;;12.13;;
56242;SDS011;42155;53.096;23.226;2023-10-31T02:09:17;28.70;;;11.88;;
56242;SDS011;42155;53.096;23.226;2023-10-31T02:11:17;20.52;;;11.73;;
56242;SDS011;42155;53.096;23.226;2023-10-31T02:13:18;21.58;;;11.43;;
56242;SDS011;42155;53.096;23.226;2023-10-31T02:15:19;18.52;;;11.10;;
56242;SDS011;42155;53.096;23.226;2023-10-31T02:17:19;19.92;;;11.07;;
56242;SDS011;42155;53.096;23.226;2023-10-31T02:19:20;20.80;;;11.02;;
56242;SDS011;42155;53.096;23.226;2023-10-31T02:21:21;20.30;;;10.60;;
56242;SDS011;42155;53.096;23.226;2023-10-31T02:23:21;20.73;;;11.07;;
56242;SDS011;42155;53.096;23.226;2023-10-31T02:25:22;19.35;;;10.85;;
56242;SDS011;42155;53.096;23.226;2023-10-31T02:27:25;24.02;;;11.15;;
56242;SDS011;42155;53.096;23.226;2023-10-31T02:29:25;22.05;;;11.60;;
56242;SDS011;42155;53.096;23.226;2023-10-31T02:31:25;20.95;;;10.80;;
56242;SDS011;42155;53.096;23.226;2023-10-31T02:33:26;18.15;;;10.57;;
56242;SDS011;42155;53.096;23.226;2023-10-31T02:35:27;23.92;;;9.73;;
56242;SDS011;42155;53.096;23.226;2023-10-31T02:37:27;24.40;;;10.20;;
56242;SDS011;42155;53.096;23.226;2023-10-31T02:39:27;20.73;;;9.98;;
56242;SDS011;42155;53.096;23.226;2023-10-31T02:41:27;20.85;;;10.77;;
56242;SDS011;42155;53.096;23.226;2023-10-31T02:43:28;18.40;;;9.98;;
56242;SDS011;42155;53.096;23.226;2023-10-31T02:45:28;17.33;;;9.88;;
56242;SDS011;42155;53.096;23.226;2023-10-31T02:47:29;17.55;;;9.30;;
56242;SDS011;42155;53.096;23.226;2023-10-31T02:49:29;18.73;;;9.55;;
56242;SDS011;42155;53.096;23.226;2023-10-31T02:51:29;17.38;;;9.50;;
56242;SDS011;42155;53.096;23.226;2023-10-31T02:53:30;16.95;;;9.80;;
56242;SDS011;42155;53.096;23.226;2023-10-31T02:55:30;15.85;;;9.07;;
56242;SDS011;42155;53.096;23.226;2023-10-31T02:57:30;19.65;;;9.10;;
56242;SDS011;42155;53.096;23.226;2023-10-31T02:59:31;17.08;;;9.43;;
56242;SDS011;42155;53.096;23.226;2023-10-31T03:01:31;18.95;;;9.60;;
56242;SDS011;42155;53.096;23.226;2023-10-31T03:03:32;21.02;;;9.65;;
56242;SDS011;42155;53.096;23.226;2023-10-31T03:05:32;16.48;;;8.40;;
56242;SDS011;42155;53.096;23.226;2023-10-31T03:07:33;20.17;;;10.15;;
56242;SDS011;42155;53.096;23.226;2023-10-31T03:09:33;16.15;;;8.45;;
56242;SDS011;42155;53.096;23.226;2023-10-31T03:11:33;16.35;;;9.27;;
56242;SDS011;42155;53.096;23.226;2023-10-31T03:13:34;12.73;;;8.27;;
56242;SDS011;42155;53.096;23.226;2023-10-31T03:15:34;15.68;;;8.90;;
56242;SDS011;42155;53.096;23.226;2023-10-31T03:17:34;18.05;;;8.85;;
56242;SDS011;42155;53.096;23.226;2023-10-31T03:19:35;17.33;;;8.32;;
56242;SDS011;42155;53.096;23.226;2023-10-31T03:21:35;12.88;;;7.82;;
56242;SDS011;42155;53.096;23.226;2023-10-31T03:23:35;15.23;;;8.50;;
56242;SDS011;42155;53.096;23.226;2023-10-31T03:25:36;17.17;;;8.85;;
56242;SDS011;42155;53.096;23.226;2023-10-31T03:27:36;17.23;;;8.38;;
56242;SDS011;42155;53.096;23.226;2023-10-31T03:29:36;16.85;;;8.05;;
56242;SDS011;42155;53.096;23.226;2023-10-31T03:31:37;15.00;;;8.02;;
56242;SDS011;42155;53.096;23.226;2023-10-31T03:33:37;16.10;;;8.02;;
56242;SDS011;42155;53.096;23.226;2023-10-31T03:35:37;19.13;;;7.75;;
56242;SDS011;42155;53.096;23.226;2023-10-31T03:37:38;15.05;;;7.57;;
56242;SDS011;42155;53.096;23.226;2023-10-31T03:39:38;15.23;;;7.82;;
56242;SDS011;42155;53.096;23.226;2023-10-31T03:41:39;15.13;;;7.82;;
56242;SDS011;42155;53.096;23.226;2023-10-31T03:43:39;15.57;;;7.55;;
56242;SDS011;42155;53.096;23.226;2023-10-31T03:45:40;15.88;;;8.18;;
56242;SDS011;42155;53.096;23.226;2023-10-31T03:47:41;15.15;;;7.32;;
56242;SDS011;42155;53.096;23.226;2023-10-31T03:49:41;15.57;;;7.55;;
56242;SDS011;42155;53.096;23.226;2023-10-31T03:51:41;14.07;;;7.05;;
56242;SDS011;42155;53.096;23.226;2023-10-31T03:53:41;17.95;;;7.85;;
56242;SDS011;42155;53.096;23.226;2023-10-31T03:55:42;15.13;;;6.35;;
56242;SDS011;42155;53.096;23.226;2023-10-31T03:57:43;15.27;;;6.50;;
56242;SDS011;42155;53.096;23.226;2023-10-31T03:59:43;13.57;;;7.13;;
56242;SDS011;42155;53.096;23.226;2023-10-31T04:01:44;14.02;;;6.65;;
56242;SDS011;42155;53.096;23.226;2023-10-31T04:03:44;12.88;;;6.53;;
56242;SDS011;42155;53.096;23.226;2023-10-31T04:05:45;14.35;;;6.35;;
56242;SDS011;42155;53.096;23.226;2023-10-31T04:07:46;16.35;;;6.60;;
56242;SDS011;42155;53.096;23.226;2023-10-31T04:09:46;15.73;;;6.45;;
56242;SDS011;42155;53.096;23.226;2023-10-31T04:11:46;16.55;;;6.40;;
56242;SDS011;42155;53.096;23.226;2023-10-31T04:13:47;13.55;;;6.05;;
56242;SDS011;42155;53.096;23.226;2023-10-31T04:15:47;10.80;;;6.22;;
56242;SDS011;42155;53.096;23.226;2023-10-31T04:17:48;13.25;;;6.53;;
56242;SDS011;42155;53.096;23.226;2023-10-31T04:19:48;18.35;;;7.20;;
56242;SDS011;42155;53.096;23.226;2023-10-31T04:21:48;12.13;;;6.05;;
56242;SDS011;42155;53.096;23.226;2023-10-31T04:23:48;11.90;;;6.03;;
56242;SDS011;42155;53.096;23.226;2023-10-31T04:25:49;13.18;;;6.13;;
56242;SDS011;42155;53.096;23.226;2023-10-31T04:27:50;13.30;;;6.07;;
56242;SDS011;42155;53.096;23.226;2023-10-31T04:29:50;12.95;;;5.88;;
56242;SDS011;42155;53.096;23.226;2023-10-31T04:31:50;11.90;;;6.38;;
56242;SDS011;42155;53.096;23.226;2023-10-31T04:33:51;14.05;;;5.90;;
56242;SDS011;42155;53.096;23.226;2023-10-31T04:35:51;12.75;;;6.30;;
56242;SDS011;42155;53.096;23.226;2023-10-31T04:37:51;10.50;;;5.93;;
56242;SDS011;42155;53.096;23.226;2023-10-31T04:39:52;13.93;;;5.90;;
56242;SDS011;42155;53.096;23.226;2023-10-31T04:41:53;11.38;;;5.78;;
56242;SDS011;42155;53.096;23.226;2023-10-31T04:43:53;11.45;;;5.50;;
56242;SDS011;42155;53.096;23.226;2023-10-31T04:45:53;10.88;;;5.50;;
56242;SDS011;42155;53.096;23.226;2023-10-31T04:47:54;13.70;;;6.10;;
56242;SDS011;42155;53.096;23.226;2023-10-31T04:49:54;11.07;;;5.75;;
56242;SDS011;42155;53.096;23.226;2023-10-31T04:51:54;9.30;;;5.63;;
56242;SDS011;42155;53.096;23.226;2023-10-31T04:53:55;12.23;;;5.65;;
56242;SDS011;42155;53.096;23.226;2023-10-31T04:55:55;10.88;;;5.88;;
56242;SDS011;42155;53.096;23.226;2023-10-31T04:57:55;10.88;;;5.43;;
56242;SDS011;42155;53.096;23.226;2023-10-31T04:59:56;8.98;;;5.57;;
56242;SDS011;42155;53.096;23.226;2023-10-31T05:01:57;12.82;;;5.50;;
56242;SDS011;42155;53.096;23.226;2023-10-31T05:03:58;14.75;;;6.43;;
56242;SDS011;42155;53.096;23.226;2023-10-31T05:05:58;15.27;;;5.57;;
56242;SDS011;42155;53.096;23.226;2023-10-31T05:07:59;10.77;;;5.60;;
56242;SDS011;42155;53.096;23.226;2023-10-31T05:09:59;11.35;;;5.45;;
56242;SDS011;42155;53.096;23.226;2023-10-31T05:11:59;13.95;;;5.90;;
56242;SDS011;42155;53.096;23.226;2023-10-31T05:14:00;11.43;;;6.60;;
56242;SDS011;42155;53.096;23.226;2023-10-31T05:16:00;10.57;;;5.80;;
56242;SDS011;42155;53.096;23.226;2023-10-31T05:18:00;10.02;;;5.45;;
56242;SDS011;42155;53.096;23.226;2023-10-31T05:20:01;12.55;;;5.88;;
56242;SDS011;42155;53.096;23.226;2023-10-31T05:22:01;10.23;;;4.90;;
56242;SDS011;42155;53.096;23.226;2023-10-31T05:24:01;9.95;;;5.10;;
56242;SDS011;42155;53.096;23.226;2023-10-31T05:26:04;12.45;;;5.35;;
56242;SDS011;42155;53.096;23.226;2023-10-31T05:28:05;10.55;;;4.97;;
56242;SDS011;42155;53.096;23.226;2023-10-31T05:30:06;8.35;;;4.70;;
56242;SDS011;42155;53.096;23.226;2023-10-31T05:32:06;11.88;;;5.13;;
56242;SDS011;42155;53.096;23.226;2023-10-31T05:34:07;9.60;;;5.00;;
56242;SDS011;42155;53.096;23.226;2023-10-31T05:36:17;13.52;;;5.40;;
56242;SDS011;42155;53.096;23.226;2023-10-31T05:40:18;11.68;;;4.90;;
56242;SDS011;42155;53.096;23.226;2023-10-31T05:42:20;11.60;;;5.53;;
56242;SDS011;42155;53.096;23.226;2023-10-31T05:44:20;9.75;;;5.00;;
56242;SDS011;42155;53.096;23.226;2023-10-31T05:46:21;11.40;;;4.55;;
56242;SDS011;42155;53.096;23.226;2023-10-31T05:48:22;9.30;;;4.50;;
56242;SDS011;42155;53.096;23.226;2023-10-31T05:50:22;9.35;;;4.78;;
56242;SDS011;42155;53.096;23.226;2023-10-31T05:52:22;9.35;;;4.50;;
56242;SDS011;42155;53.096;23.226;2023-10-31T05:54:23;12.32;;;4.63;;
56242;SDS011;42155;53.096;23.226;2023-10-31T05:56:23;15.55;;;5.13;;
56242;SDS011;42155;53.096;23.226;2023-10-31T05:58:24;12.27;;;4.78;;
56242;SDS011;42155;53.096;23.226;2023-10-31T06:00:24;10.85;;;4.90;;
56242;SDS011;42155;53.096;23.226;2023-10-31T06:02:24;10.80;;;4.80;;
56242;SDS011;42155;53.096;23.226;2023-10-31T06:04:25;11.35;;;4.80;;
56242;SDS011;42155;53.096;23.226;2023-10-31T06:06:25;9.30;;;4.57;;
56242;SDS011;42155;53.096;23.226;2023-10-31T06:08:25;10.25;;;4.72;;
56242;SDS011;42155;53.096;23.226;2023-10-31T06:10:26;9.63;;;4.10;;
56242;SDS011;42155;53.096;23.226;2023-10-31T06:12:26;8.95;;;4.38;;
56242;SDS011;42155;53.096;23.226;2023-10-31T06:14:26;11.00;;;4.18;;
56242;SDS011;42155;53.096;23.226;2023-10-31T06:16:27;10.35;;;4.93;;
56242;SDS011;42155;53.096;23.226;2023-10-31T06:18:28;7.50;;;4.38;;
56242;SDS011;42155;53.096;23.226;2023-10-31T06:20:28;9.82;;;4.88;;
56242;SDS011;42155;53.096;23.226;2023-10-31T06:22:29;8.50;;;4.30;;
56242;SDS011;42155;53.096;23.226;2023-10-31T06:24:29;8.80;;;4.55;;
56242;SDS011;42155;53.096;23.226;2023-10-31T06:26:30;11.65;;;4.28;;
56242;SDS011;42155;53.096;23.226;2023-10-31T06:28:30;9.02;;;4.65;;
56242;SDS011;42155;53.096;23.226;2023-10-31T06:30:30;8.38;;;4.38;;
56242;SDS011;42155;53.096;23.226;2023-10-31T06:32:31;9.60;;;4.30;;
56242;SDS011;42155;53.096;23.226;2023-10-31T06:34:31;10.15;;;4.40;;
56242;SDS011;42155;53.096;23.226;2023-10-31T06:36:31;12.40;;;4.20;;
56242;SDS011;42155;53.096;23.226;2023-10-31T06:38:32;8.23;;;3.97;;
56242;SDS011;42155;53.096;23.226;2023-10-31T06:40:32;10.10;;;4.50;;
56242;SDS011;42155;53.096;23.226;2023-10-31T06:42:32;9.23;;;3.92;;
56242;SDS011;42155;53.096;23.226;2023-10-31T06:44:33;9.38;;;4.32;;
56242;SDS011;42155;53.096;23.226;2023-10-31T06:46:33;11.27;;;4.15;;
56242;SDS011;42155;53.096;23.226;2023-10-31T06:48:34;9.52;;;4.07;;
56242;SDS011;42155;53.096;23.226;2023-10-31T06:50:34;6.85;;;3.92;;
56242;SDS011;42155;53.096;23.226;2023-10-31T06:52:34;8.23;;;3.95;;
56242;SDS011;42155;53.096;23.226;2023-10-31T06:54:35;9.15;;;4.10;;
56242;SDS011;42155;53.096;23.226;2023-10-31T06:56:35;8.45;;;3.88;;
56242;SDS011;42155;53.096;23.226;2023-10-31T06:58:36;8.05;;;4.03;;
56242;SDS011;42155;53.096;23.226;2023-10-31T07:00:37;7.90;;;3.75;;
56242;SDS011;42155;53.096;23.226;2023-10-31T07:02:37;8.05;;;4.10;;
56242;SDS011;42155;53.096;23.226;2023-10-31T07:04:37;8.60;;;4.75;;
56242;SDS011;42155;53.096;23.226;2023-10-31T07:06:38;11.23;;;4.07;;
56242;SDS011;42155;53.096;23.226;2023-10-31T07:08:38;7.50;;;4.10;;
56242;SDS011;42155;53.096;23.226;2023-10-31T07:10:39;10.85;;;4.53;;
56242;SDS011;42155;53.096;23.226;2023-10-31T07:12:39;8.73;;;4.25;;
56242;SDS011;42155;53.096;23.226;2023-10-31T07:14:39;11.88;;;3.90;;
56242;SDS011;42155;53.096;23.226;2023-10-31T07:16:40;10.82;;;4.13;;
56242;SDS011;42155;53.096;23.226;2023-10-31T07:18:40;9.98;;;3.88;;
56242;SDS011;42155;53.096;23.226;2023-10-31T07:20:41;12.43;;;4.07;;
56242;SDS011;42155;53.096;23.226;2023-10-31T07:22:41;14.77;;;4.55;;
56242;SDS011;42155;53.096;23.226;2023-10-31T07:24:41;6.88;;;3.58;;
56242;SDS011;42155;53.096;23.226;2023-10-31T07:26:41;7.20;;;3.70;;
56242;SDS011;42155;53.096;23.226;2023-10-31T07:28:42;10.02;;;4.15;;
56242;SDS011;42155;53.096;23.226;2023-10-31T07:30:42;7.47;;;3.70;;
56242;SDS011;42155;53.096;23.226;2023-10-31T07:32:43;9.60;;;3.95;;
56242;SDS011;42155;53.096;23.226;2023-10-31T07:34:43;8.45;;;3.45;;
56242;SDS011;42155;53.096;23.226;2023-10-31T07:36:43;11.93;;;4.55;;
56242;SDS011;42155;53.096;23.226;2023-10-31T07:38:44;10.55;;;4.00;;
56242;SDS011;42155;53.096;23.226;2023-10-31T07:40:44;6.32;;;3.40;;
56242;SDS011;42155;53.096;23.226;2023-10-31T07:42:44;9.38;;;4.30;;
56242;SDS011;42155;53.096;23.226;2023-10-31T07:44:45;11.70;;;4.60;;
56242;SDS011;42155;53.096;23.226;2023-10-31T07:46:45;10.48;;;4.30;;
56242;SDS011;42155;53.096;23.226;2023-10-31T07:48:45;11.88;;;5.32;;
56242;SDS011;42155;53.096;23.226;2023-10-31T07:50:46;11.82;;;4.60;;
56242;SDS011;42155;53.096;23.226;2023-10-31T07:52:46;11.48;;;4.95;;
56242;SDS011;42155;53.096;23.226;2023-10-31T07:54:46;15.60;;;4.80;;
56242;SDS011;42155;53.096;23.226;2023-10-31T07:56:47;9.63;;;3.72;;
56242;SDS011;42155;53.096;23.226;2023-10-31T07:58:47;11.25;;;4.45;;
56242;SDS011;42155;53.096;23.226;2023-10-31T08:00:47;14.13;;;3.80;;
56242;SDS011;42155;53.096;23.226;2023-10-31T08:02:48;9.75;;;3.80;;
56242;SDS011;42155;53.096;23.226;2023-10-31T08:04:48;8.88;;;3.78;;
56242;SDS011;42155;53.096;23.226;2023-10-31T08:06:48;10.13;;;3.70;;
56242;SDS011;42155;53.096;23.226;2023-10-31T08:08:49;7.72;;;3.83;;
56242;SDS011;42155;53.096;23.226;2023-10-31T08:10:49;8.88;;;3.50;;
56242;SDS011;42155;53.096;23.226;2023-10-31T08:12:50;8.57;;;3.40;;
56242;SDS011;42155;53.096;23.226;2023-10-31T08:14:50;7.53;;;3.53;;
56242;SDS011;42155;53.096;23.226;2023-10-31T08:16:50;10.77;;;3.55;;
56242;SDS011;42155;53.096;23.226;2023-10-31T08:18:51;8.43;;;3.83;;
56242;SDS011;42155;53.096;23.226;2023-10-31T08:20:51;7.78;;;3.40;;
56242;SDS011;42155;53.096;23.226;2023-10-31T08:22:51;7.47;;;3.58;;
56242;SDS011;42155;53.096;23.226;2023-10-31T08:24:52;8.90;;;3.10;;
56242;SDS011;42155;53.096;23.226;2023-10-31T08:26:52;11.18;;;3.00;;
56242;SDS011;42155;53.096;23.226;2023-10-31T08:28:52;9.82;;;3.63;;
56242;SDS011;42155;53.096;23.226;2023-10-31T08:30:53;7.72;;;3.47;;
56242;SDS011;42155;53.096;23.226;2023-10-31T08:32:53;8.68;;;3.40;;
56242;SDS011;42155;53.096;23.226;2023-10-31T08:34:54;6.85;;;2.92;;
56242;SDS011;42155;53.096;23.226;2023-10-31T08:36:54;7.88;;;3.20;;
56242;SDS011;42155;53.096;23.226;2023-10-31T08:38:54;6.05;;;3.00;;
56242;SDS011;42155;53.096;23.226;2023-10-31T08:40:55;8.70;;;3.45;;
56242;SDS011;42155;53.096;23.226;2023-10-31T08:42:56;10.82;;;3.38;;
56242;SDS011;42155;53.096;23.226;2023-10-31T08:44:56;10.48;;;3.20;;
56242;SDS011;42155;53.096;23.226;2023-10-31T08:46:57;10.35;;;3.05;;
56242;SDS011;42155;53.096;23.226;2023-10-31T08:48:57;9.90;;;2.92;;
56242;SDS011;42155;53.096;23.226;2023-10-31T08:50:58;7.47;;;2.55;;
56242;SDS011;42155;53.096;23.226;2023-10-31T08:52:58;4.97;;;2.50;;
56242;SDS011;42155;53.096;23.226;2023-10-31T08:54:58;7.13;;;2.80;;
56242;SDS011;42155;53.096;23.226;2023-10-31T08:56:59;5.63;;;2.70;;
56242;SDS011;42155;53.096;23.226;2023-10-31T08:58:59;7.95;;;3.20;;
56242;SDS011;42155;53.096;23.226;2023-10-31T09:00:59;6.75;;;2.75;;
56242;SDS011;42155;53.096;23.226;2023-10-31T09:03:00;5.43;;;2.80;;
56242;SDS011;42155;53.096;23.226;2023-10-31T09:05:00;6.88;;;2.70;;
56242;SDS011;42155;53.096;23.226;2023-10-31T09:07:01;6.25;;;2.72;;
56242;SDS011;42155;53.096;23.226;2023-10-31T09:09:01;12.98;;;3.60;;
56242;SDS011;42155;53.096;23.226;2023-10-31T09:11:03;7.78;;;3.17;;
56242;SDS011;42155;53.096;23.226;2023-10-31T09:13:04;7.38;;;2.83;;
56242;SDS011;42155;53.096;23.226;2023-10-31T09:15:04;5.88;;;2.75;;
56242;SDS011;42155;53.096;23.226;2023-10-31T09:17:05;7.38;;;2.97;;
56242;SDS011;42155;53.096;23.226;2023-10-31T09:19:05;8.18;;;2.75;;
56242;SDS011;42155;53.096;23.226;2023-10-31T09:21:06;6.68;;;2.33;;
56242;SDS011;42155;53.096;23.226;2023-10-31T09:23:06;9.65;;;3.40;;
56242;SDS011;42155;53.096;23.226;2023-10-31T09:25:07;7.93;;;3.20;;
56242;SDS011;42155;53.096;23.226;2023-10-31T09:27:07;7.25;;;3.00;;
56242;SDS011;42155;53.096;23.226;2023-10-31T09:29:07;7.70;;;3.25;;
56242;SDS011;42155;53.096;23.226;2023-10-31T09:31:08;10.23;;;2.90;;
56242;SDS011;42155;53.096;23.226;2023-10-31T09:33:08;6.40;;;3.00;;
56242;SDS011;42155;53.096;23.226;2023-10-31T09:35:08;7.03;;;3.33;;
56242;SDS011;42155;53.096;23.226;2023-10-31T09:37:09;9.32;;;3.70;;
56242;SDS011;42155;53.096;23.226;2023-10-31T09:39:09;7.68;;;2.85;;
56242;SDS011;42155;53.096;23.226;2023-10-31T09:41:10;6.30;;;2.90;;
56242;SDS011;42155;53.096;23.226;2023-10-31T09:43:11;7.85;;;2.85;;
56242;SDS011;42155;53.096;23.226;2023-10-31T09:45:12;10.57;;;3.17;;
56242;SDS011;42155;53.096;23.226;2023-10-31T09:47:13;6.43;;;2.95;;
56242;SDS011;42155;53.096;23.226;2023-10-31T09:49:15;9.15;;;3.13;;
56242;SDS011;42155;53.096;23.226;2023-10-31T09:51:16;10.88;;;3.20;;
56242;SDS011;42155;53.096;23.226;2023-10-31T09:53:17;6.85;;;3.00;;
56242;SDS011;42155;53.096;23.226;2023-10-31T09:55:18;7.32;;;3.00;;
56242;SDS011;42155;53.096;23.226;2023-10-31T09:57:19;11.07;;;3.10;;
56242;SDS011;42155;53.096;23.226;2023-10-31T09:59:20;8.90;;;3.33;;
56242;SDS011;42155;53.096;23.226;2023-10-31T10:01:20;5.50;;;2.85;;
56242;SDS011;42155;53.096;23.226;2023-10-31T10:03:20;6.72;;;2.88;;
56242;SDS011;42155;53.096;23.226;2023-10-31T10:05:22;6.43;;;3.08;;
56242;SDS011;42155;53.096;23.226;2023-10-31T10:07:23;6.32;;;2.67;;
56242;SDS011;42155;53.096;23.226;2023-10-31T10:09:23;9.70;;;4.38;;
56242;SDS011;42155;53.096;23.226;2023-10-31T10:11:24;8.88;;;3.03;;
56242;SDS011;42155;53.096;23.226;2023-10-31T10:13:24;5.70;;;2.65;;
56242;SDS011;42155;53.096;23.226;2023-10-31T10:15:25;10.07;;;3.47;;
56242;SDS011;42155;53.096;23.226;2023-10-31T10:17:26;11.57;;;2.78;;
56242;SDS011;42155;53.096;23.226;2023-10-31T10:19:27;7.90;;;2.85;;
56242;SDS011;42155;53.096;23.226;2023-10-31T10:21:27;8.23;;;2.88;;
56242;SDS011;42155;53.096;23.226;2023-10-31T10:23:27;6.32;;;2.70;;
56242;SDS011;42155;53.096;23.226;2023-10-31T10:25:29;6.10;;;2.90;;
56242;SDS011;42155;53.096;23.226;2023-10-31T10:27:29;6.47;;;2.75;;
56242;SDS011;42155;53.096;23.226;2023-10-31T10:29:30;9.88;;;2.75;;
56242;SDS011;42155;53.096;23.226;2023-10-31T10:31:30;7.30;;;2.72;;
56242;SDS011;42155;53.096;23.226;2023-10-31T10:33:30;9.02;;;3.03;;
56242;SDS011;42155;53.096;23.226;2023-10-31T10:35:31;10.25;;;3.28;;
56242;SDS011;42155;53.096;23.226;2023-10-31T10:37:31;5.05;;;2.38;;
56242;SDS011;42155;53.096;23.226;2023-10-31T10:39:32;6.70;;;2.72;;
56242;SDS011;42155;53.096;23.226;2023-10-31T10:41:34;5.53;;;2.55;;
56242;SDS011;42155;53.096;23.226;2023-10-31T10:43:36;6.40;;;2.72;;
56242;SDS011;42155;53.096;23.226;2023-10-31T10:45:37;9.25;;;2.80;;
56242;SDS011;42155;53.096;23.226;2023-10-31T10:47:43;6.65;;;2.60;;
56242;SDS011;42155;53.096;23.226;2023-10-31T10:49:46;8.93;;;2.85;;
56242;SDS011;42155;53.096;23.226;2023-10-31T10:51:53;8.23;;;2.55;;
56242;SDS011;42155;53.096;23.226;2023-10-31T10:53:57;8.18;;;3.25;;
56242;SDS011;42155;53.096;23.226;2023-10-31T10:56:07;5.88;;;3.00;;
56242;SDS011;42155;53.096;23.226;2023-10-31T10:58:17;5.82;;;2.75;;
56242;SDS011;42155;53.096;23.226;2023-10-31T11:00:36;6.65;;;2.80;;
56242;SDS011;42155;53.096;23.226;2023-10-31T11:02:38;8.77;;;2.97;;
56242;SDS011;42155;53.096;23.226;2023-10-31T11:04:39;6.82;;;2.90;;
56242;SDS011;42155;53.096;23.226;2023-10-31T11:06:42;6.70;;;2.53;;
56242;SDS011;42155;53.096;23.226;2023-10-31T11:08:44;8.95;;;2.83;;
56242;SDS011;42155;53.096;23.226;2023-10-31T11:10:46;6.50;;;2.78;;
56242;SDS011;42155;53.096;23.226;2023-10-31T11:12:47;6.78;;;2.75;;
56242;SDS011;42155;53.096;23.226;2023-10-31T11:14:47;7.97;;;3.17;;
56242;SDS011;42155;53.096;23.226;2023-10-31T11:16:48;6.70;;;3.28;;
56242;SDS011;42155;53.096;23.226;2023-10-31T11:18:52;6.53;;;2.75;;
56242;SDS011;42155;53.096;23.226;2023-10-31T11:20:53;8.05;;;2.55;;
56242;SDS011;42155;53.096;23.226;2023-10-31T11:22:54;10.70;;;2.92;;
56242;SDS011;42155;53.096;23.226;2023-10-31T11:24:56;8.15;;;3.00;;
56242;SDS011;42155;53.096;23.226;2023-10-31T11:27:00;5.85;;;2.60;;
56242;SDS011;42155;53.096;23.226;2023-10-31T11:29:04;6.65;;;2.60;;
56242;SDS011;42155;53.096;23.226;2023-10-31T11:31:07;8.27;;;2.70;;
56242;SDS011;42155;53.096;23.226;2023-10-31T11:33:11;5.18;;;2.35;;
56242;SDS011;42155;53.096;23.226;2023-10-31T11:35:13;8.18;;;2.33;;
56242;SDS011;42155;53.096;23.226;2023-10-31T11:37:26;4.82;;;2.47;;
56242;SDS011;42155;53.096;23.226;2023-10-31T11:39:26;5.90;;;2.55;;
56242;SDS011;42155;53.096;23.226;2023-10-31T11:41:27;8.23;;;2.58;;
56242;SDS011;42155;53.096;23.226;2023-10-31T11:45:57;6.57;;;2.20;;
56242;SDS011;42155;53.096;23.226;2023-10-31T11:47:57;5.70;;;2.15;;
56242;SDS011;42155;53.096;23.226;2023-10-31T11:49:58;6.05;;;2.25;;
56242;SDS011;42155;53.096;23.226;2023-10-31T11:51:58;8.98;;;2.40;;